createdAt,value
2023-04-09T00:02:00.576Z,7.70
2023-04-09T00:04:27.151Z,7.69
2023-04-09T00:06:53.598Z,7.74
2023-04-09T00:09:20.780Z,7.58
2023-04-09T00:11:47.231Z,7.58
2023-04-09T00:14:13.618Z,7.68
2023-04-09T00:16:40.609Z,7.55
2023-04-09T00:19:07.647Z,7.69
2023-04-09T00:21:34.115Z,7.63
2023-04-09T00:24:00.591Z,7.66
2023-04-09T00:26:27.353Z,7.48
2023-04-09T00:28:54.114Z,7.43
2023-04-09T00:31:20.991Z,7.24
2023-04-09T00:33:47.480Z,7.09
2023-04-09T00:36:14.001Z,7.12
2023-04-09T00:38:40.785Z,7.33
2023-04-09T00:41:07.329Z,7.17
2023-04-09T00:43:33.771Z,7.29
2023-04-09T00:46:00.688Z,7.22
2023-04-09T00:48:27.607Z,7.20
2023-04-09T00:50:54.167Z,7.11
2023-04-09T00:53:20.648Z,7.20
2023-04-09T00:55:47.133Z,7.00
2023-04-09T00:58:13.995Z,6.89
2023-04-09T01:00:40.603Z,6.85
2023-04-09T01:03:07.572Z,6.93
2023-04-09T01:05:49.291Z,6.70
2023-04-09T01:08:32.448Z,6.59
2023-04-09T01:11:38.319Z,6.52
2023-04-09T01:14:22.974Z,6.54
2023-04-09T01:16:53.510Z,6.52
2023-04-09T01:19:42.173Z,6.48
2023-04-09T01:22:19.281Z,6.44
2023-04-09T01:25:01.030Z,6.46
2023-04-09T01:27:36.644Z,6.32
2023-04-09T01:30:04.762Z,6.34
2023-04-09T01:32:33.512Z,6.27
2023-04-09T01:35:00.299Z,6.15
2023-04-09T01:37:27.121Z,6.16
2023-04-09T01:39:53.785Z,6.14
2023-04-09T01:42:20.815Z,6.14
2023-04-09T01:44:47.614Z,6.00
2023-04-09T01:47:14.149Z,5.93
2023-04-09T01:49:41.541Z,5.78
2023-04-09T01:52:08.937Z,5.77
2023-04-09T01:54:35.551Z,5.79
2023-04-09T01:57:01.987Z,5.86
2023-04-09T01:59:28.436Z,5.80
2023-04-09T02:01:59.528Z,5.53
2023-04-09T02:04:33.684Z,5.46
2023-04-09T02:07:05.992Z,5.45
2023-04-09T02:09:34.309Z,5.47
2023-04-09T02:12:03.668Z,5.57
2023-04-09T02:14:32.229Z,5.73
2023-04-09T02:16:59.957Z,5.54
2023-04-09T02:19:39.125Z,5.75
2023-04-09T02:22:05.666Z,5.58
2023-04-09T02:24:32.107Z,5.51
2023-04-09T02:26:58.539Z,5.31
2023-04-09T02:29:25.430Z,5.45
2023-04-09T02:31:53.146Z,5.42
2023-04-09T02:34:20.275Z,5.53
2023-04-09T02:36:46.717Z,5.38
2023-04-09T02:39:13.170Z,5.51
2023-04-09T02:41:40.982Z,5.43
2023-04-09T02:44:07.506Z,5.26
2023-04-09T02:46:34.134Z,5.36
2023-04-09T02:49:00.622Z,5.25
2023-04-09T02:51:27.491Z,5.26
2023-04-09T02:53:53.902Z,5.10
2023-04-09T02:56:20.528Z,5.01
2023-04-09T02:58:49.419Z,5.18
2023-04-09T03:01:16.033Z,5.21
2023-04-09T03:03:43.059Z,5.17
2023-04-09T03:06:09.646Z,4.89
2023-04-09T03:08:36.060Z,4.85
2023-04-09T03:11:02.714Z,4.99
2023-04-09T03:13:29.175Z,4.86
2023-04-09T03:15:55.700Z,4.95
2023-04-09T03:18:22.148Z,4.73
2023-04-09T03:20:48.597Z,4.77
2023-04-09T03:23:15.337Z,4.78
2023-04-09T03:25:41.762Z,4.70
2023-04-09T03:28:08.189Z,4.74
2023-04-09T03:30:34.687Z,4.73
2023-04-09T03:33:01.100Z,4.74
2023-04-09T03:35:27.586Z,4.63
2023-04-09T03:37:54.022Z,4.51
2023-04-09T03:40:20.408Z,4.44
2023-04-09T03:42:46.843Z,4.47
2023-04-09T03:45:13.270Z,4.46
2023-04-09T03:47:39.806Z,4.31
2023-04-09T03:50:06.890Z,4.17
2023-04-09T03:52:33.378Z,4.29
2023-04-09T03:54:59.900Z,4.32
2023-04-09T03:57:26.326Z,4.18
2023-04-09T03:59:52.764Z,4.34
2023-04-09T04:02:19.403Z,4.37
2023-04-09T04:04:46.245Z,4.22
2023-04-09T04:07:12.690Z,4.27
2023-04-09T04:09:39.071Z,4.19
2023-04-09T04:12:05.687Z,4.30
2023-04-09T04:14:32.118Z,4.12
2023-04-09T04:16:58.569Z,4.10
2023-04-09T04:19:25.159Z,4.12
2023-04-09T04:21:51.689Z,4.14
2023-04-09T04:24:18.104Z,4.08
2023-04-09T04:26:44.711Z,3.97
2023-04-09T04:29:11.334Z,3.98
2023-04-09T04:31:37.846Z,3.95
2023-04-09T04:34:04.371Z,3.94
2023-04-09T04:36:31.020Z,4.00
2023-04-09T04:38:57.412Z,4.04
2023-04-09T04:41:23.869Z,4.04
2023-04-09T04:43:50.303Z,3.97
2023-04-09T04:46:16.843Z,4.08
2023-04-09T04:48:43.343Z,4.04
2023-04-09T04:51:09.797Z,3.97
2023-04-09T04:53:36.187Z,3.89
2023-04-09T04:56:02.631Z,4.10
2023-04-09T04:58:30.362Z,4.08
2023-04-09T05:00:56.787Z,4.27
2023-04-09T05:03:25.286Z,4.23
2023-04-09T05:05:53.355Z,4.20
2023-04-09T05:08:19.778Z,4.16
2023-04-09T05:10:46.838Z,4.30
2023-04-09T05:13:13.242Z,4.38
2023-04-09T05:15:40.622Z,4.45
2023-04-09T05:18:08.145Z,4.44
2023-04-09T05:20:35.295Z,4.38
2023-04-09T05:23:01.852Z,4.45
2023-04-09T05:25:28.313Z,4.39
2023-04-09T05:27:54.747Z,4.45
2023-04-09T05:30:21.536Z,4.50
2023-04-09T05:32:47.969Z,4.61
2023-04-09T05:35:14.456Z,4.70
2023-04-09T05:37:41.187Z,4.76
2023-04-09T05:40:08.252Z,4.72
2023-04-09T05:42:34.673Z,4.76
2023-04-09T05:45:01.126Z,4.92
2023-04-09T05:47:27.659Z,4.96
2023-04-09T05:49:54.230Z,4.98
2023-04-09T05:52:21.442Z,5.11
2023-04-09T05:54:47.913Z,4.99
2023-04-09T05:57:14.752Z,5.02
2023-04-09T05:59:41.186Z,5.07
2023-04-09T06:02:07.655Z,5.14
2023-04-09T06:04:34.298Z,5.19
2023-04-09T06:07:01.350Z,5.33
2023-04-09T06:09:27.922Z,5.40
2023-04-09T06:11:54.397Z,5.41
2023-04-09T06:14:20.847Z,5.53
2023-04-09T06:16:47.278Z,5.69
2023-04-09T06:19:16.241Z,5.81
2023-04-09T06:21:42.682Z,6.01
2023-04-09T06:24:09.204Z,6.13
2023-04-09T06:26:35.752Z,6.30
2023-04-09T06:29:02.182Z,6.35
2023-04-09T06:31:28.667Z,6.59
2023-04-09T06:33:55.804Z,6.65
2023-04-09T06:36:22.975Z,6.74
2023-04-09T06:38:49.416Z,6.75
2023-04-09T06:41:16.184Z,7.05
2023-04-09T06:43:42.646Z,7.31
2023-04-09T06:46:09.330Z,7.76
2023-04-09T06:48:36.050Z,8.11
2023-04-09T06:51:02.505Z,8.34
2023-04-09T06:53:28.994Z,8.47
2023-04-09T06:55:57.098Z,8.43
2023-04-09T06:58:23.729Z,8.71
2023-04-09T07:00:50.278Z,8.72
2023-04-09T07:03:16.924Z,8.87
2023-04-09T07:05:43.488Z,9.37
2023-04-09T07:08:09.963Z,9.32
2023-04-09T07:10:36.815Z,9.47
2023-04-09T07:13:03.348Z,9.39
2023-04-09T07:15:29.798Z,9.49
2023-04-09T07:17:57.674Z,10.01
2023-04-09T07:20:24.224Z,10.08
2023-04-09T07:22:50.844Z,10.19
2023-04-09T07:25:17.285Z,10.40
2023-04-09T07:27:44.486Z,10.59
2023-04-09T07:30:11.154Z,9.95
2023-04-09T07:32:38.089Z,10.22
2023-04-09T07:35:07.862Z,10.37
2023-04-09T07:37:34.299Z,10.44
2023-04-09T07:40:00.954Z,10.29
2023-04-09T07:42:28.213Z,10.39
2023-04-09T07:44:54.716Z,10.34
2023-04-09T07:47:21.656Z,10.40
2023-04-09T07:49:48.130Z,10.74
2023-04-09T07:52:14.801Z,10.99
2023-04-09T07:54:41.372Z,11.00
2023-04-09T07:57:07.845Z,11.15
2023-04-09T07:59:34.910Z,11.27
2023-04-09T08:02:02.432Z,11.36
2023-04-09T08:04:29.040Z,11.36
2023-04-09T08:06:55.699Z,11.13
2023-04-09T08:09:22.160Z,11.05
2023-04-09T08:11:48.990Z,11.18
2023-04-09T08:14:16.937Z,11.62
2023-04-09T08:16:45.046Z,11.49
2023-04-09T08:19:11.912Z,11.40
2023-04-09T08:21:39.465Z,11.67
2023-04-09T08:24:07.044Z,11.87
2023-04-09T08:26:33.456Z,11.45
2023-04-09T08:29:00.006Z,11.49
2023-04-09T08:31:27.306Z,11.84
2023-04-09T08:33:53.774Z,12.17
2023-04-09T08:36:21.487Z,12.15
2023-04-09T08:38:48.609Z,12.35
2023-04-09T08:41:19.998Z,12.19
2023-04-09T08:43:57.765Z,12.40
2023-04-09T08:46:26.504Z,12.69
2023-04-09T08:48:53.967Z,12.54
2023-04-09T08:51:22.152Z,12.71
2023-04-09T08:53:52.662Z,12.40
2023-04-09T08:56:19.591Z,12.76
2023-04-09T08:58:46.826Z,12.74
2023-04-09T09:01:20.819Z,12.75
2023-04-09T09:04:03.755Z,13.08
2023-04-09T09:06:35.873Z,13.12
2023-04-09T09:09:16.307Z,13.07
2023-04-09T09:11:43.857Z,13.00
2023-04-09T09:14:11.593Z,13.19
2023-04-09T09:16:43.745Z,13.00
2023-04-09T09:19:28.673Z,13.31
2023-04-09T09:21:59.849Z,12.81
2023-04-09T09:24:26.400Z,13.02
2023-04-09T09:26:54.448Z,13.35
2023-04-09T09:29:21.223Z,13.70
2023-04-09T09:31:51.550Z,13.69
2023-04-09T09:34:19.065Z,13.73
2023-04-09T09:36:46.443Z,13.86
2023-04-09T09:39:14.214Z,13.75
2023-04-09T09:41:43.928Z,13.78
2023-04-09T09:44:11.925Z,13.46
2023-04-09T09:46:40.646Z,13.47
2023-04-09T09:49:07.819Z,13.31
2023-04-09T09:51:37.428Z,13.49
2023-04-09T09:54:04.028Z,13.28
2023-04-09T09:56:34.669Z,13.81
2023-04-09T09:59:17.458Z,14.01
2023-04-09T10:01:44.737Z,14.28
2023-04-09T10:04:14.476Z,14.64
2023-04-09T10:06:45.083Z,14.63
2023-04-09T10:09:11.870Z,14.36
2023-04-09T10:11:42.380Z,14.05
2023-04-09T10:14:09.701Z,13.90
2023-04-09T10:16:36.148Z,14.27
2023-04-09T10:19:03.292Z,14.31
2023-04-09T10:21:42.574Z,14.57
2023-04-09T10:24:09.471Z,14.89
2023-04-09T10:26:40.139Z,14.85
2023-04-09T10:29:14.588Z,15.20
2023-04-09T10:31:54.818Z,14.99
2023-04-09T10:34:23.553Z,15.40
2023-04-09T10:36:54.955Z,15.40
2023-04-09T10:39:21.758Z,15.96
2023-04-09T10:41:49.232Z,15.63
2023-04-09T10:44:27.048Z,16.10
2023-04-09T10:46:56.597Z,15.63
2023-04-09T10:49:27.087Z,15.29
2023-04-09T10:51:53.512Z,15.08
2023-04-09T10:54:34.981Z,14.57
2023-04-09T10:57:07.325Z,14.86
2023-04-09T10:59:34.428Z,14.93
2023-04-09T11:02:00.971Z,14.99
2023-04-09T11:05:10.493Z,14.71
2023-04-09T11:07:40.703Z,14.93
2023-04-09T11:10:07.713Z,14.68
2023-04-09T11:12:34.131Z,14.68
2023-04-09T11:15:00.659Z,14.93
2023-04-09T11:17:27.441Z,14.31
2023-04-09T11:19:55.572Z,14.33
2023-04-09T11:22:22.244Z,14.25
2023-04-09T11:24:50.714Z,14.98
2023-04-09T11:27:19.494Z,15.25
2023-04-09T11:29:45.896Z,15.14
2023-04-09T11:32:12.589Z,15.00
2023-04-09T11:34:39.022Z,14.87
2023-04-09T11:37:09.060Z,15.10
2023-04-09T11:39:38.617Z,14.96
2023-04-09T11:42:05.210Z,15.01
2023-04-09T11:44:31.656Z,15.29
2023-04-09T11:46:59.026Z,15.20
2023-04-09T11:49:25.628Z,15.09
2023-04-09T11:51:52.194Z,15.44
2023-04-09T11:54:18.737Z,15.29
2023-04-09T11:56:45.158Z,15.47
2023-04-09T11:59:14.481Z,15.70
2023-04-09T12:01:41.704Z,15.82
2023-04-09T12:04:09.457Z,16.41
2023-04-09T12:06:40.374Z,16.28
2023-04-09T12:09:08.775Z,16.21
2023-04-09T12:11:37.117Z,15.90
2023-04-09T12:14:04.358Z,15.35
2023-04-09T12:16:34.764Z,15.63
2023-04-09T12:19:03.074Z,15.78
2023-04-09T12:21:47.983Z,15.54
2023-04-09T12:24:15.336Z,15.65
2023-04-09T12:26:41.770Z,15.81
2023-04-09T12:29:08.349Z,15.71
2023-04-09T12:31:34.789Z,15.65
2023-04-09T12:34:01.205Z,15.39
2023-04-09T12:36:27.710Z,15.51
2023-04-09T12:38:54.136Z,15.50
2023-04-09T12:41:20.634Z,15.79
2023-04-09T12:43:47.972Z,16.18
2023-04-09T12:46:14.409Z,16.48
2023-04-09T12:48:40.836Z,16.42
2023-04-09T12:51:07.388Z,16.34
2023-04-09T12:53:34.023Z,16.40
2023-04-09T12:56:01.316Z,16.51
2023-04-09T12:58:27.824Z,16.66
2023-04-09T13:00:54.594Z,16.90
2023-04-09T13:03:21.533Z,17.00
2023-04-09T13:05:48.996Z,17.05
2023-04-09T13:08:16.113Z,17.04
2023-04-09T13:10:42.700Z,17.18
2023-04-09T13:13:12.121Z,17.37
2023-04-09T13:15:39.618Z,17.50
2023-04-09T13:18:06.106Z,17.33
2023-04-09T13:20:32.606Z,16.84
2023-04-09T13:22:59.053Z,17.42
2023-04-09T13:25:25.451Z,17.14
2023-04-09T13:27:51.896Z,17.22
2023-04-09T13:30:18.621Z,16.93
2023-04-09T13:32:45.053Z,17.21
2023-04-09T13:35:11.624Z,17.31
2023-04-09T13:37:38.093Z,17.34
2023-04-09T13:40:05.025Z,16.88
2023-04-09T13:42:32.093Z,17.38
2023-04-09T13:44:58.724Z,17.10
2023-04-09T13:47:25.142Z,17.14
2023-04-09T13:49:52.990Z,17.50
2023-04-09T13:52:19.477Z,17.39
2023-04-09T13:54:45.976Z,17.12
2023-04-09T13:57:12.455Z,16.47
2023-04-09T13:59:38.915Z,17.27
2023-04-09T14:02:05.488Z,17.30
2023-04-09T14:04:31.972Z,17.53
2023-04-09T14:06:58.407Z,17.82
2023-04-09T14:09:24.883Z,17.36
2023-04-09T14:11:51.436Z,17.25
2023-04-09T14:14:17.985Z,17.38
2023-04-09T14:16:44.444Z,16.64
2023-04-09T14:19:10.910Z,17.10
2023-04-09T14:21:37.321Z,17.43
2023-04-09T14:24:03.854Z,17.42
2023-04-09T14:26:30.322Z,17.55
2023-04-09T14:28:56.776Z,17.71
2023-04-09T14:31:23.316Z,17.57
2023-04-09T14:33:49.918Z,17.71
2023-04-09T14:36:16.669Z,17.37
2023-04-09T14:38:43.150Z,17.31
2023-04-09T14:41:09.850Z,17.42
2023-04-09T14:43:36.318Z,17.12
2023-04-09T14:46:03.977Z,17.20
2023-04-09T14:48:30.695Z,17.29
2023-04-09T14:50:57.214Z,17.37
2023-04-09T14:53:23.673Z,17.75
2023-04-09T14:55:50.294Z,17.62
2023-04-09T14:58:17.054Z,17.50
2023-04-09T15:00:44.952Z,17.33
2023-04-09T15:03:11.946Z,17.41
2023-04-09T15:05:38.720Z,17.45
2023-04-09T15:08:05.171Z,17.04
2023-04-09T15:10:31.668Z,17.46
2023-04-09T15:12:58.107Z,17.40
2023-04-09T15:15:24.653Z,17.82
2023-04-09T15:17:51.445Z,17.57
2023-04-09T15:20:18.406Z,17.24
2023-04-09T15:22:44.885Z,17.44
2023-04-09T15:25:13.759Z,17.67
2023-04-09T15:27:40.815Z,17.31
2023-04-09T15:30:08.037Z,17.29
2023-04-09T15:32:34.528Z,17.33
2023-04-09T15:35:01.303Z,17.33
2023-04-09T15:37:27.728Z,16.73
2023-04-09T15:39:54.146Z,17.13
2023-04-09T15:42:22.836Z,17.11
2023-04-09T15:44:50.303Z,16.94
2023-04-09T15:47:17.135Z,17.00
2023-04-09T15:49:43.887Z,17.34
2023-04-09T15:52:10.446Z,17.39
2023-04-09T15:54:36.942Z,17.04
2023-04-09T15:57:04.165Z,17.28
2023-04-09T15:59:30.755Z,17.09
2023-04-09T16:01:57.319Z,17.45
2023-04-09T16:04:23.807Z,17.21
2023-04-09T16:06:50.268Z,16.95
2023-04-09T16:09:16.756Z,17.01
2023-04-09T16:11:43.188Z,17.09
2023-04-09T16:14:09.646Z,17.06
2023-04-09T16:16:36.827Z,16.29
2023-04-09T16:19:03.378Z,16.53
2023-04-09T16:21:29.813Z,16.79
2023-04-09T16:23:56.366Z,16.40
2023-04-09T16:26:22.796Z,16.12
2023-04-09T16:28:49.256Z,16.00
2023-04-09T16:31:15.983Z,15.78
2023-04-09T16:33:42.831Z,15.57
2023-04-09T16:36:09.281Z,15.60
2023-04-09T16:38:36.369Z,15.56
2023-04-09T16:41:02.772Z,15.44
2023-04-09T16:43:29.897Z,15.49
2023-04-09T16:45:56.421Z,15.55
2023-04-09T16:48:23.884Z,15.51
2023-04-09T16:50:50.352Z,15.39
2023-04-09T16:53:16.799Z,15.34
2023-04-09T16:55:44.739Z,15.08
2023-04-09T16:58:11.134Z,15.02
2023-04-09T17:00:37.870Z,14.92
2023-04-09T17:03:04.509Z,14.82
2023-04-09T17:05:31.270Z,14.74
2023-04-09T17:07:57.753Z,14.59
2023-04-09T17:10:24.250Z,14.64
2023-04-09T17:12:50.770Z,14.57
2023-04-09T17:15:17.741Z,14.55
2023-04-09T17:17:45.671Z,14.33
2023-04-09T17:20:12.687Z,14.37
2023-04-09T17:22:39.294Z,14.20
2023-04-09T17:25:06.180Z,14.21
2023-04-09T17:27:32.684Z,14.17
2023-04-09T17:29:59.202Z,14.02
2023-04-09T17:32:25.956Z,14.00
2023-04-09T17:34:52.560Z,13.94
2023-04-09T17:37:19.780Z,13.93
2023-04-09T17:39:46.379Z,13.86
2023-04-09T17:42:12.842Z,13.75
2023-04-09T17:44:39.321Z,13.68
2023-04-09T17:47:07.294Z,13.70
2023-04-09T17:49:33.801Z,13.63
2023-04-09T17:52:00.333Z,13.62
2023-04-09T17:54:26.809Z,13.62
2023-04-09T17:56:53.205Z,13.53
2023-04-09T17:59:20.470Z,13.41
2023-04-09T18:01:47.003Z,13.46
2023-04-09T18:04:13.955Z,13.46
2023-04-09T18:06:40.689Z,13.30
2023-04-09T18:09:07.482Z,13.31
2023-04-09T18:11:36.172Z,13.22
2023-04-09T18:14:07.715Z,13.32
2023-04-09T18:16:38.435Z,13.34
2023-04-09T18:19:05.947Z,13.14
2023-04-09T18:21:32.466Z,13.19
2023-04-09T18:23:59.144Z,13.16
2023-04-09T18:26:25.691Z,13.14
2023-04-09T18:28:52.306Z,13.01
2023-04-09T18:31:19.023Z,13.09
2023-04-09T18:33:45.522Z,13.00
2023-04-09T18:36:12.108Z,12.99
2023-04-09T18:38:39.335Z,12.89
2023-04-09T18:41:05.799Z,12.82
2023-04-09T18:43:32.212Z,12.81
2023-04-09T18:45:59.089Z,12.72
2023-04-09T18:48:25.921Z,12.71
2023-04-09T18:50:52.366Z,12.62
2023-04-09T18:53:18.744Z,12.47
2023-04-09T18:55:46.372Z,12.26
2023-04-09T18:58:13.853Z,12.05
2023-04-09T19:00:40.504Z,11.93
2023-04-09T19:03:07.783Z,11.93
2023-04-09T19:05:35.234Z,11.76
2023-04-09T19:08:03.156Z,11.69
2023-04-09T19:10:29.607Z,11.51
2023-04-09T19:12:56.096Z,11.10
2023-04-09T19:15:26.005Z,11.41
2023-04-09T19:17:52.991Z,11.46
2023-04-09T19:20:19.851Z,11.09
2023-04-09T19:22:50.299Z,11.10
2023-04-09T19:25:18.146Z,10.94
2023-04-09T19:27:45.350Z,10.86
2023-04-09T19:30:12.395Z,10.81
2023-04-09T19:32:39.048Z,10.78
2023-04-09T19:35:07.069Z,10.77
2023-04-09T19:37:34.725Z,10.62
2023-04-09T19:40:04.339Z,10.29
2023-04-09T19:42:34.649Z,10.37
2023-04-09T19:45:01.082Z,10.31
2023-04-09T19:47:28.151Z,10.22
2023-04-09T19:49:54.653Z,10.21
2023-04-09T19:52:21.199Z,9.96
2023-04-09T19:54:47.664Z,10.03
2023-04-09T19:57:15.199Z,10.23
2023-04-09T19:59:41.673Z,10.28
2023-04-09T20:02:08.341Z,10.26
2023-04-09T20:04:34.834Z,10.05
2023-04-09T20:07:01.289Z,9.88
2023-04-09T20:09:29.034Z,9.58
2023-04-09T20:11:55.555Z,9.61
2023-04-09T20:14:22.039Z,9.58
2023-04-09T20:16:48.551Z,9.46
2023-04-09T20:19:15.204Z,9.48
2023-04-09T20:21:43.498Z,9.50
2023-04-09T20:24:09.949Z,9.62
2023-04-09T20:26:36.602Z,9.39
2023-04-09T20:29:03.113Z,8.96
2023-04-09T20:31:30.873Z,8.70
2023-04-09T20:33:57.433Z,8.91
2023-04-09T20:36:23.840Z,8.90
2023-04-09T20:38:50.243Z,8.93
2023-04-09T20:41:16.644Z,8.86
2023-04-09T20:43:43.074Z,8.51
2023-04-09T20:46:09.669Z,8.26
2023-04-09T20:48:36.231Z,8.40
2023-04-09T20:51:08.032Z,8.47
2023-04-09T20:53:34.434Z,8.62
2023-04-09T20:56:02.003Z,8.48
2023-04-09T20:58:28.399Z,7.99
2023-04-09T21:01:06.566Z,8.03
2023-04-09T21:03:34.611Z,8.17
2023-04-09T21:06:01.607Z,8.32
2023-04-09T21:08:29.067Z,8.20
2023-04-09T21:10:56.012Z,8.16
2023-04-09T21:13:23.566Z,8.11
2023-04-09T21:15:50.192Z,8.09
2023-04-09T21:18:17.306Z,8.19
2023-04-09T21:20:45.753Z,8.22
2023-04-09T21:23:12.738Z,8.13
2023-04-09T21:25:39.187Z,7.72
2023-04-09T21:28:06.332Z,7.76
2023-04-09T21:30:37.912Z,7.79
2023-04-09T21:33:06.580Z,7.77
2023-04-09T21:35:33.820Z,7.83
2023-04-09T21:38:00.423Z,7.80
2023-04-09T21:40:27.186Z,7.71
2023-04-09T21:42:53.620Z,7.71
2023-04-09T21:45:20.060Z,7.73
2023-04-09T21:47:46.874Z,7.57
2023-04-09T21:50:14.949Z,7.52
2023-04-09T21:52:41.906Z,7.36
2023-04-09T21:55:10.168Z,7.24
2023-04-09T21:57:36.943Z,7.32
2023-04-09T22:00:05.025Z,7.48
2023-04-09T22:02:31.684Z,7.44
2023-04-09T22:05:01.361Z,7.22
2023-04-09T22:07:27.968Z,7.31
2023-04-09T22:09:57.682Z,7.17
2023-04-09T22:12:24.098Z,6.89
2023-04-09T22:14:50.890Z,6.98
2023-04-09T22:17:17.568Z,7.07
2023-04-09T22:19:44.086Z,6.88
2023-04-09T22:22:13.406Z,6.94
2023-04-09T22:24:39.889Z,6.98
2023-04-09T22:27:06.479Z,6.90
2023-04-09T22:29:33.816Z,6.76
2023-04-09T22:32:00.437Z,6.91
2023-04-09T22:34:26.871Z,6.83
2023-04-09T22:36:53.313Z,6.91
2023-04-09T22:39:19.820Z,6.94
2023-04-09T22:41:46.266Z,6.83
2023-04-09T22:44:12.674Z,6.80
2023-04-09T22:46:39.123Z,6.57
2023-04-09T22:49:06.236Z,6.75
2023-04-09T22:51:34.421Z,6.73
2023-04-09T22:54:01.812Z,6.87
2023-04-09T22:56:28.646Z,6.81
2023-04-09T22:58:55.279Z,6.68
2023-04-09T23:01:22.142Z,6.76
2023-04-09T23:03:49.964Z,6.73
2023-04-09T23:06:19.409Z,6.86
2023-04-09T23:08:46.449Z,6.87
2023-04-09T23:11:12.978Z,6.81
2023-04-09T23:13:39.501Z,6.85
2023-04-09T23:16:07.510Z,6.73
2023-04-09T23:18:35.364Z,6.80
2023-04-09T23:21:06.918Z,6.71
2023-04-09T23:23:34.199Z,6.57
2023-04-09T23:26:00.921Z,6.84
2023-04-09T23:28:27.589Z,6.73
2023-04-09T23:30:54.516Z,6.77
2023-04-09T23:33:20.961Z,6.80
2023-04-09T23:35:47.821Z,6.84
2023-04-09T23:38:15.433Z,6.84
2023-04-09T23:40:42.196Z,6.86
2023-04-09T23:43:08.891Z,6.87
2023-04-09T23:45:35.617Z,6.60
2023-04-09T23:48:03.239Z,6.68
2023-04-09T23:50:30.310Z,6.60
2023-04-09T23:52:59.875Z,6.70
2023-04-09T23:55:27.108Z,6.65
2023-04-09T23:57:53.747Z,6.43
